BFIBOEING FLD/KING COUNTY INTL
METARs for airports near BFI, sorted by distance:
N 0 nm 21' KBFI 280453Z 18004KT 10SM FU CLR 14/12 A2993
SE 4 nm 32' KRNT 280453Z 17007KT 9SM FU CLR 16/12 A2992
S 4 nm 432' KSEA 280453Z 20006KT 10SM CLR 14/11 A2994
W 18 nm 444' KPWT 280456Z 21004KT 10SM CLR 11/11 A2993
SW 19 nm 294' KTIW 280453Z 26003KT 10SM CLR 13/12 A2994
N 22 nm 606' KPAE 280453Z 01004KT 10SM FU CLR 15/10 A2992
S 24 nm 322' KTCM 280456Z 26004KT 10SM CLR 14/14 A2994
S 25 nm 537' KPLU 280515Z 00000KT 10SM CLR 13/12 A2995
S 29 nm 301' KGRF 280456Z 23003KT 10SM CLR 13/11 A2992
N 38 nm 141' KAWO 280456Z 00000KT 10SM CLR 15/11 A2992
SW 38 nm 272' KSHN 280453Z 25010KT 10SM OVC011 14/11 A2992
SW 41 nm 207' KOLM 280454Z 18003KT 10SM CLR 12/11 A2995
N 51 nm 47' KNUW 280453Z 20005KT 10SM FEW080 SCT250 13/11 A2994
N 56 nm 145' KBVS 280515Z 18004KT 10SM CLR 13/10 A2991
NW 57 nm 13' KNOW 280515Z 27011KT 10SM CLR 13/12 A2991
SW 58 nm 177' KCLS 280415Z 00000KT 10SM OVC018 14/13 A2995
NW 59 nm 291' KCLM 280453Z 28007KT 10SM CLR 14/11 A2992
NW 66 nm 112' KFHR 280453Z 17003KT 10SM CLR 13/09 A2988
SW 74 nm 17' KHQM 280453Z 19008KT 10SM OVC017 16/12 A2997
N 74 nm 34' KORS 280515Z 17009KT 10SM CLR 16/ A2986
N 76 nm 171' KBLI 280453Z 19007KT 10SM CLR 16/13 A2988
E 78 nm 1763' KELN 280453Z 33010KT 10SM CLR 21/08 A2988
NW 80 nm 64' CYYJ 280500Z 27003KT 20SM FEW220 13/11 A2985
E 85 nm 1248' KEAT 280455Z 02005KT 10SM CLR 21/08 A2985
S 88 nm 20' KKLS 280456Z 31003KT 10SM OVC015 15/12 A2997
SE 92 nm 1098' KYKM 280453Z 00000KT 10SM CLR 17/09 A2986
W 94 nm 194' KUIL 280453Z 19007KT 10SM OVC017 13/13 A2995
TAFs for airports near BFI, sorted by distance:
N 0 nm 21' KBFI TAF KBFI 272320Z 2800/2824 18007KT P6SM BKN200
  FM280400 23005KT P6SM SCT120 BKN200
  FM280900 19004KT P6SM BKN070
  FM281200 17005KT P6SM OVC027
  FM281800 21005KT P6SM VCSH BKN040 OVC070
S 4 nm 432' KSEA KSEA 280252Z 2803/2906 20008KT P6SM SCT120 BKN200
  FM280900 19004KT P6SM SCT025 BKN070
  FM281200 17004KT P6SM OVC020
  FM281800 21005KT P6SM VCSH BKN035 OVC060
  FM282200 23007KT P6SM VCSH BKN050 OVC100
W 18 nm 444' KPWT TAF KPWT 272320Z 2800/2824 21010KT P6SM BKN200
  FM280300 19006KT P6SM SCT120 BKN200
  FM280900 19005KT P6SM SCT010 BKN060
  FM281100 19007KT P6SM BKN009 OVC030
  FM281700 19006KT P6SM VCSH BKN025 OVC050
N 22 nm 606' KPAE TAF KPAE 272320Z 2800/2824 26006KT P6SM BKN200
  FM280500 18005KT P6SM SCT120 BKN200
  FM280900 17008KT P6SM BKN050
  FM281200 17008KT P6SM SCT008 BKN022 OVC040
  FM281800 19007KT P6SM VCSH BKN035 OVC060
S 24 nm 322' KTCM TAF KTCM 280500Z 2805/2911 25006KT 9999 SCT025 QNH2993INS
  BECMG 2806/2807 23006KT 9999 BKN015 OVC025 QNH2994INS
  BECMG 2814/2815 22006KT 9999 VCSH BKN015 OVC025 QNH2995INS
  BECMG 2816/2817 25008KT 9000 -SHRA BKN015 OVC025 QNH2996INS
  BECMG 2822/2823 24006KT 9999 VCSH BKN030 OVC050 QNH2997INS
  BECMG 2905/2906 VRB06KT 9999 NSW BKN020 OVC040 QNH3002INS TX19/2821Z TN11/2813Z
S 29 nm 301' KGRF TAF KGRF 272100Z 2721/2903 22010G15KT 9999 FEW290 QNH2984INS
  BECMG 2801/2802 24010G15KT 9999 FEW020 SCT220 QNH2986INS
  BECMG 2802/2803 25010KT 9999 FEW020 SCT220 QNH2989INS
  BECMG 2803/2804 24006KT 9999 BKN018 BKN200 QNH2990INS
  BECMG 2807/2808 20005KT 9999 FEW009 BKN015 BKN190 QNH2991INS
  BECMG 2814/2815 21004KT 9999 FEW020 BKN130 OVC180 QNH2992INS
  BECMG 2817/2818 22005KT 9999 BKN030 BKN100 OVC150 QNH2993INS
  BECMG 2819/2820 23010KT 9000 -SHRA BKN020 OVC050 QNH2993INS TX26/2723Z TN12/2814Z
SW 41 nm 207' KOLM TAF KOLM 272320Z 2800/2824 24010KT P6SM BKN200
  FM280300 18005KT P6SM SCT120 BKN200
  FM281000 21003KT P6SM BKN012 OVC060
  FM281400 22004KT P6SM VCSH BKN018 OVC040
  FM281900 21006KT P6SM VCSH BKN030 OVC050
N 51 nm 47' KNUW TAF KNUW 2723/2823 28008KT 9999 FEW040 SCT250 QNH2984INS
  FM280100 24008KT 9999 FEW015 SCT150 BKN250 QNH2985INS
  FM280700 VRB06KT 9999 VCSH SCT015 BKN040 BKN150 QNH2993INS
  TEMPO 2809/2815 15008KT 6000 RA BR BKN010 OVC030
  FM281800 14008KT 9999 VCSH BKN025 BKN050 BKN100 QNH2997INS T19/2723Z T09/2813Z FS30004
NW 59 nm 291' KCLM TAF KCLM 272320Z 2800/2824 28008KT P6SM SCT200
  FM280900 26004KT P6SM FEW015 BKN120 OVC200
  FM281300 VRB04KT P6SM VCSH BKN022 OVC040
  FM282100 01004KT P6SM BKN035 OVC060
SW 74 nm 17' KHQM TAF KHQM 272320Z 2800/2824 22010KT P6SM OVC011
  FM280600 13005KT P6SM OVC010
  FM281100 09008KT P6SM VCSH OVC015
  FM281700 11010KT 6SM -RA BR OVC012
  FM282200 14009KT 6SM BR VCSH BKN017 OVC035
N 76 nm 171' KBLI TAF KBLI 272320Z 2800/2824 18008KT P6SM BKN200
  FM280900 16010KT P6SM SCT100 OVC200
  FM281400 17010KT P6SM BKN020 OVC050
  FM281900 17008KT P6SM SCT030 OVC060
E 85 nm 1248' KEAT TAF KEAT 280520Z 2806/2906 31007KT P6SM FEW120 SCT250
  FM281200 30009KT 6SM HZ SCT080 BKN250
  FM281800 28005KT P6SM SCT080 BKN200
  FM290300 31009KT P6SM SCT080 BKN100
SE 92 nm 1098' KYKM TAF KYKM 272326Z 2800/2824 25008KT P6SM SKC
  FM280200 25008KT P6SM FEW250
  FM280600 28008KT P6SM SCT250
  FM282000 25008KT P6SM SCT100 BKN250

Shortcut to this page: http://wxbay.com.

Data may contain errors.